Time;durP1;ratioP1;P1;durP2;ratioP2;P2;SDS_P1;SDS_P2;PMS_P1;PMS_P2;Temp;Humidity;BMP_temperature;BMP_pressure;BME280_temperature;BME280_humidity;BME280_pressure;Samples;Min_cycle;Max_cycle;Signal;HPM_P1;HPM_P2
2023/06/08 00:00:09;;;;;;;;;;;14.20;99.90;;;;;;5132566;27;19923;-42
2023/06/08 00:02:36;;;;;;;;;;;14.20;99.90;;;;;;5133167;27;19912;-41
2023/06/08 00:05:02;;;;;;;;;;;14.10;99.90;;;;;;5133481;27;19912;-41
2023/06/08 00:07:28;;;;;;;;;;;14.10;99.90;;;;;;5132194;27;20289;-43
2023/06/08 00:09:54;;;;;;;;;;;14.10;99.90;;;;;;5133285;27;19908;-44
2023/06/08 00:12:20;;;;;;;;;;;14.10;99.90;;;;;;5132993;27;19907;-46
2023/06/08 00:14:46;;;;;;;;;;;14.10;99.90;;;;;;5132561;27;19908;-42
2023/06/08 00:17:12;;;;;;;;;;;14.00;99.90;;;;;;5133132;27;20006;-41
2023/06/08 00:19:37;;;;;;;;;;;14.00;99.90;;;;;;5133229;27;19915;-42
2023/06/08 00:22:04;;;;;;;;;;;14.00;99.90;;;;;;5132447;27;20384;-42
2023/06/08 00:24:30;;;;;;;;;;;14.00;99.90;;;;;;5132951;27;19919;-44
2023/06/08 00:26:56;;;;;;;;;;;14.00;99.90;;;;;;5133114;27;20358;-44
2023/06/08 00:29:21;;;;;;;;;;;14.10;99.90;;;;;;5131701;28;19922;-42
2023/06/08 00:31:48;;;;;;;;;;;14.10;99.90;;;;;;5117572;28;19939;-44
2023/06/08 00:34:14;;;;;;;;;;;14.10;99.90;;;;;;5122047;28;19912;-42
2023/06/08 00:36:39;;;;;;;;;;;14.10;99.90;;;;;;5132172;28;19934;-44
2023/06/08 00:39:05;;;;;;;;;;;14.10;99.90;;;;;;5132609;28;20006;-42
2023/06/08 00:41:30;;;;;;;;;;;14.10;99.90;;;;;;5131553;28;19959;-42
2023/06/08 00:43:56;;;;;;;;;;;14.10;99.90;;;;;;5130831;28;19912;-42
2023/06/08 00:46:22;;;;;;;;;;;14.10;99.90;;;;;;5123359;28;19915;-42
2023/06/08 00:48:48;;;;;;;;;;;14.00;99.90;;;;;;5115527;28;19915;-41
2023/06/08 00:51:13;;;;;;;;;;;14.00;99.90;;;;;;5129046;28;19908;-43
2023/06/08 00:53:39;;;;;;;;;;;13.90;99.90;;;;;;5132812;28;19944;-41
2023/06/08 00:56:06;;;;;;;;;;;13.90;99.90;;;;;;5131938;28;19950;-42
2023/06/08 00:58:33;;;;;;;;;;;13.80;99.90;;;;;;5132534;28;19911;-42
2023/06/08 01:01:04;;;;;;;;;;;13.80;99.90;;;;;;5132648;28;20335;-43
2023/06/08 01:03:38;;;;;;;;;;;13.80;99.90;;;;;;5131853;28;20002;-42
2023/06/08 01:06:04;;;;;;;;;;;13.80;99.90;;;;;;5127653;28;20321;-42
2023/06/08 01:08:31;;;;;;;;;;;13.80;99.90;;;;;;5111999;28;20538;-41
2023/06/08 01:10:57;;;;;;;;;;;13.80;99.90;;;;;;5111373;28;19931;-42
2023/06/08 01:13:27;;;;;;;;;;;13.80;99.90;;;;;;5111933;28;20286;-44
2023/06/08 01:15:59;;;;;;;;;;;13.80;99.90;;;;;;5111985;28;20282;-43
2023/06/08 01:18:26;;;;;;;;;;;13.80;99.90;;;;;;5111168;28;19908;-45
2023/06/08 01:21:11;;;;;;;;;;;13.80;99.90;;;;;;5112032;28;19973;-41
2023/06/08 01:23:45;;;;;;;;;;;13.80;99.90;;;;;;5111818;28;20350;-43
2023/06/08 01:26:15;;;;;;;;;;;13.70;99.90;;;;;;5111993;28;19999;-45
2023/06/08 01:28:42;;;;;;;;;;;13.70;99.90;;;;;;5112022;28;19931;-43
2023/06/08 01:31:07;;;;;;;;;;;13.70;99.90;;;;;;5111373;28;20000;-42
2023/06/08 01:33:33;;;;;;;;;;;13.70;99.90;;;;;;5111743;28;19951;-43
2023/06/08 01:36:14;;;;;;;;;;;13.70;99.90;;;;;;5111926;28;19977;-43
2023/06/08 01:38:45;;;;;;;;;;;13.70;99.90;;;;;;5110688;28;20268;-42
2023/06/08 01:41:22;;;;;;;;;;;13.70;99.90;;;;;;5111729;28;19915;-47
2023/06/08 01:43:49;;;;;;;;;;;13.70;99.90;;;;;;5130729;27;19958;-42
2023/06/08 01:46:16;;;;;;;;;;;13.60;99.90;;;;;;5134963;27;20482;-42
2023/06/08 01:48:43;;;;;;;;;;;13.60;99.90;;;;;;5136041;27;19918;-46
2023/06/08 01:51:10;;;;;;;;;;;13.60;99.90;;;;;;5131595;27;20374;-41
2023/06/08 01:53:35;;;;;;;;;;;13.60;99.90;;;;;;5120925;27;19953;-43
2023/06/08 01:56:01;;;;;;;;;;;13.60;99.90;;;;;;5115698;27;19908;-42
2023/06/08 01:58:27;;;;;;;;;;;13.70;99.90;;;;;;5135471;27;19943;-43
2023/06/08 02:00:52;;;;;;;;;;;13.70;99.90;;;;;;5134991;27;19942;-42
2023/06/08 02:03:17;;;;;;;;;;;13.70;99.90;;;;;;5135804;27;19914;-42
2023/06/08 02:05:43;;;;;;;;;;;13.60;99.90;;;;;;5135765;27;19907;-43
2023/06/08 02:08:08;;;;;;;;;;;13.60;99.90;;;;;;5135070;27;19912;-42
2023/06/08 02:10:34;;;;;;;;;;;13.60;99.90;;;;;;5114751;28;19911;-46
2023/06/08 02:12:59;;;;;;;;;;;13.60;99.90;;;;;;5114286;28;20380;-44
2023/06/08 02:15:25;;;;;;;;;;;13.50;99.90;;;;;;5114738;28;20385;-43
2023/06/08 02:17:51;;;;;;;;;;;13.60;99.90;;;;;;5114786;28;19918;-43
2023/06/08 02:20:17;;;;;;;;;;;13.60;99.90;;;;;;5113806;28;20491;-43
2023/06/08 02:22:42;;;;;;;;;;;13.50;99.90;;;;;;5114792;28;20290;-43
2023/06/08 02:25:09;;;;;;;;;;;13.50;99.90;;;;;;5114884;28;19908;-46
2023/06/08 02:27:36;;;;;;;;;;;13.50;99.90;;;;;;5113587;28;19991;-43
2023/06/08 02:30:02;;;;;;;;;;;13.50;99.90;;;;;;5114623;28;19914;-41
2023/06/08 02:32:32;;;;;;;;;;;13.60;99.90;;;;;;5114356;28;19962;-46
2023/06/08 02:34:59;;;;;;;;;;;13.50;99.90;;;;;;5113754;28;20006;-46
2023/06/08 02:37:25;;;;;;;;;;;13.60;99.90;;;;;;5114077;28;19998;-43
2023/06/08 02:39:51;;;;;;;;;;;13.60;99.90;;;;;;5114384;28;20023;-43
2023/06/08 02:42:18;;;;;;;;;;;13.50;99.90;;;;;;5113378;28;19991;-44
2023/06/08 02:44:44;;;;;;;;;;;13.50;99.90;;;;;;5114580;27;19954;-42
2023/06/08 02:47:09;;;;;;;;;;;13.60;99.90;;;;;;5134919;27;19986;-42
2023/06/08 02:49:35;;;;;;;;;;;13.50;99.90;;;;;;5133841;27;19947;-42
2023/06/08 02:52:01;;;;;;;;;;;13.60;99.90;;;;;;5134722;27;19990;-43
2023/06/08 02:54:26;;;;;;;;;;;13.50;99.90;;;;;;5132899;27;19915;-42
2023/06/08 02:56:51;;;;;;;;;;;13.50;99.90;;;;;;5131978;27;19916;-42
2023/06/08 02:59:18;;;;;;;;;;;13.50;99.90;;;;;;5124495;27;19937;-42
2023/06/08 03:01:52;;;;;;;;;;;13.50;99.90;;;;;;5127093;27;19963;-41
2023/06/08 03:04:18;;;;;;;;;;;13.50;99.90;;;;;;5117338;27;19935;-42
2023/06/08 03:06:43;;;;;;;;;;;13.50;99.90;;;;;;5126314;27;20010;-44
2023/06/08 03:09:09;;;;;;;;;;;13.50;99.90;;;;;;5113969;28;19962;-48
2023/06/08 03:11:34;;;;;;;;;;;13.50;99.90;;;;;;5123085;27;19994;-42
2023/06/08 03:14:00;;;;;;;;;;;13.50;99.90;;;;;;5134324;27;19908;-45
2023/06/08 03:16:26;;;;;;;;;;;13.50;99.90;;;;;;5133296;27;20366;-43
2023/06/08 03:18:52;;;;;;;;;;;13.50;99.90;;;;;;5134026;27;19915;-43
2023/06/08 03:21:18;;;;;;;;;;;13.50;99.90;;;;;;5133830;27;19911;-42
2023/06/08 03:23:46;;;;;;;;;;;13.50;99.90;;;;;;5123729;27;20390;-41
2023/06/08 03:26:11;;;;;;;;;;;13.50;99.90;;;;;;5113248;28;19912;-43
2023/06/08 03:28:37;;;;;;;;;;;13.50;99.90;;;;;;5113417;28;19908;-42
2023/06/08 03:31:02;;;;;;;;;;;13.50;99.90;;;;;;5112723;28;19908;-42
2023/06/08 03:33:28;;;;;;;;;;;13.50;99.90;;;;;;5113183;28;20298;-42
2023/06/08 03:35:53;;;;;;;;;;;13.50;99.90;;;;;;5113167;28;19960;-43
2023/06/08 03:38:19;;;;;;;;;;;13.50;99.90;;;;;;5093756;28;19946;-43
2023/06/08 03:40:44;;;;;;;;;;;13.50;99.90;;;;;;5113149;28;19922;-43
2023/06/08 03:43:10;;;;;;;;;;;13.50;99.90;;;;;;5113220;28;19908;-44
2023/06/08 03:45:35;;;;;;;;;;;13.50;99.90;;;;;;5112420;28;20349;-43
2023/06/08 03:48:01;;;;;;;;;;;13.50;99.90;;;;;;5113120;28;19930;-42
2023/06/08 03:50:26;;;;;;;;;;;13.50;99.90;;;;;;5112927;28;19914;-42
2023/06/08 03:52:52;;;;;;;;;;;13.50;99.90;;;;;;5112525;28;20363;-43
2023/06/08 03:55:17;;;;;;;;;;;13.40;99.90;;;;;;5112739;28;19912;-43
2023/06/08 03:57:42;;;;;;;;;;;13.50;99.90;;;;;;5112924;28;19926;-43
2023/06/08 04:00:11;;;;;;;;;;;13.50;99.90;;;;;;5120404;27;19915;-41
2023/06/08 04:02:37;;;;;;;;;;;13.40;99.90;;;;;;5133605;27;20376;-41
2023/06/08 04:05:03;;;;;;;;;;;13.40;99.90;;;;;;5133037;27;19915;-43
2023/06/08 04:07:32;;;;;;;;;;;13.40;99.90;;;;;;5113941;27;20463;-43
2023/06/08 04:09:57;;;;;;;;;;;13.50;99.90;;;;;;5133294;27;19914;-42
2023/06/08 04:12:23;;;;;;;;;;;13.50;99.90;;;;;;5133020;27;19907;-42
2023/06/08 04:14:48;;;;;;;;;;;13.50;99.90;;;;;;5132428;27;20402;-42
2023/06/08 04:17:15;;;;;;;;;;;13.50;99.90;;;;;;5133060;27;19911;-41
2023/06/08 04:19:41;;;;;;;;;;;13.50;99.90;;;;;;5132364;27;19911;-41
2023/06/08 04:22:07;;;;;;;;;;;13.50;99.90;;;;;;5133012;27;20358;-45
2023/06/08 04:24:33;;;;;;;;;;;13.50;99.90;;;;;;5132925;27;19918;-43
2023/06/08 04:26:58;;;;;;;;;;;13.40;99.90;;;;;;5132191;27;20373;-45
2023/06/08 04:29:24;;;;;;;;;;;13.40;99.90;;;;;;5132791;27;19907;-43
2023/06/08 04:31:49;;;;;;;;;;;13.50;99.90;;;;;;5133082;28;20315;-42
2023/06/08 04:34:15;;;;;;;;;;;13.50;99.90;;;;;;5119430;28;19919;-47
2023/06/08 04:36:44;;;;;;;;;;;13.50;99.90;;;;;;5129773;28;19911;-44
2023/06/08 04:39:09;;;;;;;;;;;13.50;99.90;;;;;;5132949;28;20331;-43
2023/06/08 04:41:36;;;;;;;;;;;13.50;99.90;;;;;;5131838;28;19915;-43
2023/06/08 04:44:02;;;;;;;;;;;13.50;99.90;;;;;;5132970;28;19961;-44
2023/06/08 04:46:33;;;;;;;;;;;13.50;99.90;;;;;;5132655;28;20291;-42
2023/06/08 04:48:59;;;;;;;;;;;13.50;99.90;;;;;;5132392;28;20355;-42
2023/06/08 04:51:29;;;;;;;;;;;13.50;99.90;;;;;;5132718;28;19907;-43
2023/06/08 04:53:56;;;;;;;;;;;13.60;99.90;;;;;;5132743;28;20048;-43
2023/06/08 04:56:23;;;;;;;;;;;13.50;99.90;;;;;;5131887;28;19915;-43
2023/06/08 04:58:49;;;;;;;;;;;13.60;99.90;;;;;;5132787;28;19907;-43
2023/06/08 05:01:15;;;;;;;;;;;13.60;99.90;;;;;;5132438;28;20273;-42
2023/06/08 05:03:40;;;;;;;;;;;13.60;99.90;;;;;;5132008;28;19907;-42
2023/06/08 05:06:06;;;;;;;;;;;13.60;99.90;;;;;;5132875;28;20301;-42
2023/06/08 05:08:31;;;;;;;;;;;13.60;99.90;;;;;;5123713;28;19908;-42
2023/06/08 05:10:57;;;;;;;;;;;13.70;99.90;;;;;;5111558;28;19912;-43
2023/06/08 05:13:22;;;;;;;;;;;13.70;99.90;;;;;;5116090;28;20392;-47
2023/06/08 05:15:48;;;;;;;;;;;13.70;99.90;;;;;;5122017;27;19915;-51
2023/06/08 05:18:13;;;;;;;;;;;13.80;99.90;;;;;;5132999;27;19998;-44
2023/06/08 05:20:39;;;;;;;;;;;13.80;99.90;;;;;;5125162;27;19926;-42
2023/06/08 05:23:04;;;;;;;;;;;13.80;99.90;;;;;;5135823;27;19911;-44
2023/06/08 05:25:30;;;;;;;;;;;13.90;99.90;;;;;;5136025;27;19953;-42
2023/06/08 05:27:55;;;;;;;;;;;13.90;99.90;;;;;;5136447;27;20424;-43
2023/06/08 05:30:21;;;;;;;;;;;13.90;99.90;;;;;;5135599;27;19915;-43
2023/06/08 05:32:46;;;;;;;;;;;13.80;99.90;;;;;;5136387;27;19907;-43
2023/06/08 05:35:12;;;;;;;;;;;13.90;99.90;;;;;;5118416;27;20396;-42
2023/06/08 05:37:37;;;;;;;;;;;13.90;99.90;;;;;;5129312;27;19919;-42
2023/06/08 05:40:04;;;;;;;;;;;13.90;99.90;;;;;;5134711;27;19926;-41
2023/06/08 05:42:29;;;;;;;;;;;13.90;99.90;;;;;;5135371;27;19911;-42
2023/06/08 05:44:55;;;;;;;;;;;14.00;99.90;;;;;;5134593;27;19914;-43
2023/06/08 05:47:20;;;;;;;;;;;14.00;99.90;;;;;;5135044;27;20295;-45
2023/06/08 05:49:46;;;;;;;;;;;13.90;99.90;;;;;;5134922;27;19947;-42
2023/06/08 05:52:11;;;;;;;;;;;13.90;99.90;;;;;;5133470;27;20435;-43
2023/06/08 05:54:37;;;;;;;;;;;13.90;99.90;;;;;;5134671;27;19957;-42
2023/06/08 05:57:02;;;;;;;;;;;13.90;99.90;;;;;;5135569;27;19916;-43
2023/06/08 05:59:28;;;;;;;;;;;14.00;99.90;;;;;;5138130;27;20379;-43
2023/06/08 06:01:53;;;;;;;;;;;14.00;99.90;;;;;;5148722;27;19911;-42
2023/06/08 06:04:19;;;;;;;;;;;14.00;99.90;;;;;;5156301;27;20429;-42
2023/06/08 06:06:44;;;;;;;;;;;14.00;99.90;;;;;;5155544;27;19907;-44
2023/06/08 06:09:11;;;;;;;;;;;14.10;99.90;;;;;;5156359;27;20312;-41
2023/06/08 06:11:37;;;;;;;;;;;14.10;99.90;;;;;;5151329;27;19908;-43
2023/06/08 06:14:03;;;;;;;;;;;14.20;99.90;;;;;;5134606;27;19916;-44
2023/06/08 06:16:28;;;;;;;;;;;14.20;99.90;;;;;;5135379;27;19908;-44
2023/06/08 06:18:54;;;;;;;;;;;14.20;99.90;;;;;;5136483;27;19911;-45
2023/06/08 06:21:19;;;;;;;;;;;14.20;99.90;;;;;;5136292;27;20290;-43
2023/06/08 06:23:45;;;;;;;;;;;14.30;99.90;;;;;;5139292;27;19915;-43
2023/06/08 06:26:11;;;;;;;;;;;14.30;99.90;;;;;;5150900;27;20292;-50
2023/06/08 06:28:38;;;;;;;;;;;14.40;99.90;;;;;;5135058;27;20044;-43
2023/06/08 06:31:03;;;;;;;;;;;14.40;99.90;;;;;;5150636;27;19911;-43
2023/06/08 06:33:29;;;;;;;;;;;14.40;99.90;;;;;;5154931;27;20324;-43
2023/06/08 06:35:55;;;;;;;;;;;14.50;99.90;;;;;;5147756;27;19911;-42
2023/06/08 06:38:20;;;;;;;;;;;14.50;99.90;;;;;;5122955;27;19919;-42
2023/06/08 06:40:49;;;;;;;;;;;14.50;99.90;;;;;;5132705;27;20392;-43
2023/06/08 06:43:14;;;;;;;;;;;14.50;99.90;;;;;;5127902;27;19912;-42
2023/06/08 06:45:40;;;;;;;;;;;14.60;99.90;;;;;;5113525;28;19930;-43
2023/06/08 06:48:05;;;;;;;;;;;14.60;99.90;;;;;;5119688;27;19908;-42
2023/06/08 06:50:31;;;;;;;;;;;14.70;99.90;;;;;;5121013;27;19964;-42
2023/06/08 06:52:56;;;;;;;;;;;14.70;99.90;;;;;;5133532;27;19914;-46
2023/06/08 06:55:22;;;;;;;;;;;14.80;99.90;;;;;;5132758;27;20282;-43
2023/06/08 06:57:48;;;;;;;;;;;14.80;99.90;;;;;;5132565;27;19907;-45
2023/06/08 07:00:15;;;;;;;;;;;14.80;99.90;;;;;;5134389;27;19923;-43
2023/06/08 07:02:42;;;;;;;;;;;14.90;99.90;;;;;;5133496;27;19985;-43
2023/06/08 07:05:08;;;;;;;;;;;14.90;99.90;;;;;;5134467;27;20377;-43
2023/06/08 07:07:36;;;;;;;;;;;15.00;99.90;;;;;;5114947;27;19912;-43
2023/06/08 07:10:02;;;;;;;;;;;15.00;99.90;;;;;;5113282;28;19908;-43
2023/06/08 07:12:28;;;;;;;;;;;15.10;99.90;;;;;;5122615;27;19915;-42
2023/06/08 07:14:53;;;;;;;;;;;15.10;99.90;;;;;;5120202;27;20364;-43
2023/06/08 07:17:19;;;;;;;;;;;15.10;99.90;;;;;;5115412;27;19914;-44
2023/06/08 07:19:46;;;;;;;;;;;15.20;99.90;;;;;;5113496;28;20259;-44
2023/06/08 07:22:11;;;;;;;;;;;15.20;99.90;;;;;;5113304;28;19914;-43
2023/06/08 07:24:37;;;;;;;;;;;15.30;99.90;;;;;;5142369;27;19907;-43
2023/06/08 07:27:02;;;;;;;;;;;15.30;99.90;;;;;;5142813;27;19960;-42
2023/06/08 07:29:28;;;;;;;;;;;15.40;99.90;;;;;;5142393;27;19912;-43
2023/06/08 07:31:53;;;;;;;;;;;15.50;99.90;;;;;;5141458;27;19960;-43
2023/06/08 07:34:19;;;;;;;;;;;15.60;99.90;;;;;;5138143;27;19935;-43
2023/06/08 07:36:45;;;;;;;;;;;15.60;99.90;;;;;;5136422;27;20456;-44
2023/06/08 07:39:10;;;;;;;;;;;15.70;99.90;;;;;;5143089;27;19911;-56
2023/06/08 07:41:36;;;;;;;;;;;15.80;99.90;;;;;;5135168;27;19926;-44
2023/06/08 07:44:02;;;;;;;;;;;15.80;99.90;;;;;;5137544;27;20026;-47
2023/06/08 07:46:27;;;;;;;;;;;15.80;99.90;;;;;;5150065;27;19915;-43
2023/06/08 07:48:53;;;;;;;;;;;15.90;99.90;;;;;;5144660;27;19915;-44
2023/06/08 07:51:18;;;;;;;;;;;15.80;99.90;;;;;;5136085;27;20030;-42
2023/06/08 07:53:44;;;;;;;;;;;15.80;99.90;;;;;;5146207;27;19919;-42
2023/06/08 07:56:10;;;;;;;;;;;15.90;99.90;;;;;;5149370;27;19934;-43
2023/06/08 07:58:35;;;;;;;;;;;16.00;99.90;;;;;;5132307;27;20393;-42
2023/06/08 08:01:01;;;;;;;;;;;16.10;99.90;;;;;;5133130;27;19926;-46
2023/06/08 08:03:27;;;;;;;;;;;16.20;99.90;;;;;;5134020;27;19973;-44
2023/06/08 08:05:53;;;;;;;;;;;16.30;99.90;;;;;;5133447;27;19915;-45
2023/06/08 08:08:18;;;;;;;;;;;16.30;99.90;;;;;;5120671;27;20292;-44
2023/06/08 08:10:44;;;;;;;;;;;16.40;99.90;;;;;;5113224;28;19918;-46
2023/06/08 08:13:11;;;;;;;;;;;16.50;99.90;;;;;;5112870;28;19914;-49
2023/06/08 08:15:39;;;;;;;;;;;16.60;99.90;;;;;;5113323;28;19908;-43
2023/06/08 08:18:05;;;;;;;;;;;16.70;99.90;;;;;;5113215;28;20273;-45
2023/06/08 08:20:30;;;;;;;;;;;16.70;99.90;;;;;;5112113;28;19920;-44
2023/06/08 08:22:56;;;;;;;;;;;16.70;99.90;;;;;;5113362;28;19907;-44
2023/06/08 08:25:21;;;;;;;;;;;16.80;99.90;;;;;;5113120;28;20041;-46
2023/06/08 08:27:47;;;;;;;;;;;16.80;99.90;;;;;;5130709;27;19939;-43
2023/06/08 08:30:13;;;;;;;;;;;16.90;99.90;;;;;;5133538;28;20357;-43
2023/06/08 08:32:38;;;;;;;;;;;17.10;99.90;;;;;;5133721;28;19975;-50
2023/06/08 08:35:04;;;;;;;;;;;17.20;99.90;;;;;;5133040;28;20474;-43
2023/06/08 08:37:31;;;;;;;;;;;17.40;99.90;;;;;;5133047;28;20370;-45
2023/06/08 08:39:57;;;;;;;;;;;17.60;99.90;;;;;;5132844;28;19911;-46
2023/06/08 08:42:25;;;;;;;;;;;17.80;99.90;;;;;;5133510;28;19908;-47
2023/06/08 08:44:54;;;;;;;;;;;17.90;99.90;;;;;;5133797;28;19970;-44
2023/06/08 08:47:21;;;;;;;;;;;18.00;99.90;;;;;;5132763;28;20056;-43
2023/06/08 08:49:48;;;;;;;;;;;18.10;99.90;;;;;;5133405;28;19912;-43
2023/06/08 08:52:17;;;;;;;;;;;18.10;99.90;;;;;;5136350;27;19917;-44
2023/06/08 08:54:43;;;;;;;;;;;18.10;99.90;;;;;;5137661;27;19908;-44
2023/06/08 08:57:09;;;;;;;;;;;18.20;99.90;;;;;;5137605;27;20741;-44
2023/06/08 08:59:36;;;;;;;;;;;18.30;99.90;;;;;;5137456;27;19915;-45
2023/06/08 09:02:03;;;;;;;;;;;18.30;99.90;;;;;;5137072;27;20005;-43
2023/06/08 09:04:28;;;;;;;;;;;18.40;99.90;;;;;;5137440;27;19947;-45
2023/06/08 09:06:54;;;;;;;;;;;18.40;99.90;;;;;;5137646;27;19961;-44
2023/06/08 09:09:19;;;;;;;;;;;18.50;99.90;;;;;;5117661;27;19909;-44
2023/06/08 09:12:00;;;;;;;;;;;18.60;99.90;;;;;;5117094;28;19912;-44
2023/06/08 09:14:26;;;;;;;;;;;18.60;99.90;;;;;;5116740;28;20416;-44
2023/06/08 09:16:53;;;;;;;;;;;18.70;99.90;;;;;;5116291;27;19962;-43
2023/06/08 09:19:18;;;;;;;;;;;18.70;99.90;;;;;;5116387;28;19912;-46
2023/06/08 09:21:44;;;;;;;;;;;18.80;99.90;;;;;;5116740;28;19919;-45
2023/06/08 09:24:16;;;;;;;;;;;18.80;99.90;;;;;;5116196;28;19969;-43
2023/06/08 09:26:53;;;;;;;;;;;18.90;99.90;;;;;;5116634;28;19999;-44
2023/06/08 09:29:40;;;;;;;;;;;18.90;99.90;;;;;;5115202;28;19912;-44
2023/06/08 09:32:06;;;;;;;;;;;19.00;99.90;;;;;;5116655;28;19934;-47
2023/06/08 09:34:34;;;;;;;;;;;19.10;99.90;;;;;;5116348;28;20270;-44
2023/06/08 09:37:06;;;;;;;;;;;19.20;99.90;;;;;;5114950;28;19928;-44
2023/06/08 09:39:41;;;;;;;;;;;19.30;99.90;;;;;;5116213;28;19919;-43
2023/06/08 09:42:07;;;;;;;;;;;19.40;99.90;;;;;;5116323;28;19907;-42
2023/06/08 09:44:33;;;;;;;;;;;19.40;99.90;;;;;;5115397;28;19919;-43
2023/06/08 09:46:58;;;;;;;;;;;19.50;99.90;;;;;;5116419;28;19915;-43
2023/06/08 09:49:24;;;;;;;;;;;19.60;99.90;;;;;;5115970;28;19915;-49
2023/06/08 09:51:53;;;;;;;;;;;19.60;99.90;;;;;;5115638;28;19961;-44
2023/06/08 09:54:19;;;;;;;;;;;19.70;99.90;;;;;;5115143;28;19916;-48
2023/06/08 09:56:52;;;;;;;;;;;19.80;99.90;;;;;;5116214;28;19908;-47
2023/06/08 09:59:19;;;;;;;;;;;19.80;99.90;;;;;;5115313;28;20069;-44
2023/06/08 10:01:54;;;;;;;;;;;19.90;99.90;;;;;;5116175;28;19912;-43
2023/06/08 10:04:20;;;;;;;;;;;20.00;99.90;;;;;;5114294;28;20003;-45
2023/06/08 10:06:46;;;;;;;;;;;20.10;99.90;;;;;;5116034;28;20002;-44
2023/06/08 10:09:14;;;;;;;;;;;20.20;99.90;;;;;;5115887;28;19952;-45
2023/06/08 10:11:40;;;;;;;;;;;20.30;99.90;;;;;;5115513;28;19908;-45
2023/06/08 10:14:06;;;;;;;;;;;20.30;99.90;;;;;;5115367;28;19915;-44
2023/06/08 10:16:32;;;;;;;;;;;20.40;99.90;;;;;;5115537;28;19916;-45
2023/06/08 10:18:58;;;;;;;;;;;20.50;99.90;;;;;;5114921;28;20044;-48
2023/06/08 10:21:24;;;;;;;;;;;20.50;99.90;;;;;;5115517;28;19930;-45
2023/06/08 10:23:50;;;;;;;;;;;20.50;99.90;;;;;;5112137;28;19911;-43
2023/06/08 10:26:17;;;;;;;;;;;20.60;99.80;;;;;;5113467;28;19915;-44
2023/06/08 10:29:01;;;;;;;;;;;20.70;99.90;;;;;;5128781;27;19924;-44
2023/06/08 10:31:37;;;;;;;;;;;20.70;99.90;;;;;;5132246;27;20135;-44
2023/06/08 10:34:13;;;;;;;;;;;20.80;99.40;;;;;;5152235;27;19907;-43
2023/06/08 10:36:40;;;;;;;;;;;20.80;99.60;;;;;;5135852;27;19986;-44
2023/06/08 10:39:07;;;;;;;;;;;20.90;99.70;;;;;;5120039;27;19919;-44
2023/06/08 10:41:44;;;;;;;;;;;21.00;99.80;;;;;;5132196;27;19923;-47
2023/06/08 10:44:29;;;;;;;;;;;21.00;98.60;;;;;;5108639;27;19918;-43
2023/06/08 10:46:57;;;;;;;;;;;21.10;98.00;;;;;;5127461;27;20285;-43
2023/06/08 10:49:22;;;;;;;;;;;21.10;98.20;;;;;;5135043;27;19912;-42
2023/06/08 10:51:53;;;;;;;;;;;21.10;97.90;;;;;;5117103;27;19926;-43
2023/06/08 10:54:22;;;;;;;;;;;21.20;97.30;;;;;;5127697;27;19911;-45
2023/06/08 10:56:52;;;;;;;;;;;21.30;97.40;;;;;;5134667;27;20351;-43
2023/06/08 10:59:36;;;;;;;;;;;21.40;97.80;;;;;;5116731;27;20007;-44
2023/06/08 11:02:05;;;;;;;;;;;21.60;97.50;;;;;;5111030;27;19912;-43
2023/06/08 11:04:31;;;;;;;;;;;21.70;97.70;;;;;;5110494;27;19992;-43
2023/06/08 11:07:03;;;;;;;;;;;21.70;96.70;;;;;;5113485;28;19946;-43
2023/06/08 11:09:36;;;;;;;;;;;21.70;97.20;;;;;;5124778;27;20414;-45
2023/06/08 11:12:03;;;;;;;;;;;21.80;97.40;;;;;;5110793;27;19912;-42
2023/06/08 11:14:28;;;;;;;;;;;22.00;97.90;;;;;;5107941;28;19935;-42
2023/06/08 11:16:54;;;;;;;;;;;22.00;97.10;;;;;;5119038;27;20263;-43
2023/06/08 11:19:20;;;;;;;;;;;22.10;97.40;;;;;;5111012;27;19916;-42
2023/06/08 11:21:50;;;;;;;;;;;22.10;97.20;;;;;;5096516;28;19922;-46
2023/06/08 11:24:16;;;;;;;;;;;22.10;97.20;;;;;;5110497;28;19918;-43
2023/06/08 11:26:42;;;;;;;;;;;22.20;96.50;;;;;;5093292;28;19909;-42
2023/06/08 11:29:07;;;;;;;;;;;22.30;96.70;;;;;;5107726;28;19912;-43
2023/06/08 11:31:40;;;;;;;;;;;22.30;96.10;;;;;;5113934;27;20115;-43
2023/06/08 11:34:15;;;;;;;;;;;22.40;95.50;;;;;;5108246;28;19912;-43
2023/06/08 11:36:50;;;;;;;;;;;22.40;94.50;;;;;;5076853;28;19921;-42
2023/06/08 11:39:15;;;;;;;;;;;22.50;95.50;;;;;;5068930;28;20295;-43
2023/06/08 11:41:46;;;;;;;;;;;22.60;95.80;;;;;;5081903;28;19908;-43
2023/06/08 11:44:15;;;;;;;;;;;22.70;95.90;;;;;;5088177;28;20003;-44
2023/06/08 11:46:40;;;;;;;;;;;22.80;95.50;;;;;;5086270;28;20429;-46
2023/06/08 11:49:07;;;;;;;;;;;22.90;95.70;;;;;;5091900;28;19991;-43
2023/06/08 11:51:32;;;;;;;;;;;22.90;95.00;;;;;;5085447;28;19909;-45
2023/06/08 11:53:58;;;;;;;;;;;22.90;94.20;;;;;;5085194;28;19995;-44
2023/06/08 11:56:23;;;;;;;;;;;22.90;94.30;;;;;;5085304;28;19962;-49
2023/06/08 11:58:49;;;;;;;;;;;22.90;94.60;;;;;;5086814;28;20327;-45
2023/06/08 12:01:15;;;;;;;;;;;23.00;94.20;;;;;;5077704;28;19959;-43
2023/06/08 12:03:41;;;;;;;;;;;23.10;94.60;;;;;;5087309;28;19962;-45
2023/06/08 12:06:07;;;;;;;;;;;23.10;93.60;;;;;;5076525;28;19908;-43
2023/06/08 12:08:33;;;;;;;;;;;23.20;93.50;;;;;;5079431;28;19922;-44
2023/06/08 12:11:05;;;;;;;;;;;23.30;93.90;;;;;;5080496;28;19912;-43
2023/06/08 12:13:31;;;;;;;;;;;23.30;93.40;;;;;;5088536;28;19977;-44
2023/06/08 12:15:56;;;;;;;;;;;23.50;93.70;;;;;;5069651;28;20253;-45
2023/06/08 12:18:22;;;;;;;;;;;23.50;93.50;;;;;;5068400;28;19909;-44
2023/06/08 12:20:51;;;;;;;;;;;23.60;92.90;;;;;;5069215;28;19969;-43
2023/06/08 12:23:16;;;;;;;;;;;23.60;91.70;;;;;;5068784;28;19952;-44
2023/06/08 12:25:42;;;;;;;;;;;23.70;91.70;;;;;;5086067;28;20408;-42
2023/06/08 12:28:17;;;;;;;;;;;23.80;92.20;;;;;;5088002;28;19908;-42
2023/06/08 12:30:43;;;;;;;;;;;23.90;92.30;;;;;;5090820;28;19935;-42
2023/06/08 12:33:10;;;;;;;;;;;24.00;91.50;;;;;;5071186;28;20307;-44
2023/06/08 12:35:35;;;;;;;;;;;24.20;91.50;;;;;;5076313;28;19924;-42
2023/06/08 12:38:01;;;;;;;;;;;24.30;91.30;;;;;;5068922;28;19919;-43
2023/06/08 12:40:27;;;;;;;;;;;24.50;91.20;;;;;;5067257;28;19913;-44
2023/06/08 12:42:52;;;;;;;;;;;24.70;89.70;;;;;;5079306;28;19991;-43
2023/06/08 12:45:21;;;;;;;;;;;24.80;89.10;;;;;;5081075;28;20264;-43
2023/06/08 12:47:47;;;;;;;;;;;24.90;86.00;;;;;;5056197;28;19909;-45
2023/06/08 12:50:13;;;;;;;;;;;25.00;84.20;;;;;;5059135;28;19955;-43
2023/06/08 12:52:39;;;;;;;;;;;25.30;84.70;;;;;;5064949;28;19965;-43
2023/06/08 12:55:08;;;;;;;;;;;25.50;83.70;;;;;;5057859;28;19920;-44
2023/06/08 12:57:34;;;;;;;;;;;25.70;82.00;;;;;;5058255;28;20340;-44
2023/06/08 13:00:00;;;;;;;;;;;25.80;80.10;;;;;;5053739;28;19938;-49
2023/06/08 13:02:26;;;;;;;;;;;26.00;80.30;;;;;;5054055;28;19915;-44
2023/06/08 13:04:52;;;;;;;;;;;26.20;80.10;;;;;;5071225;28;20003;-43
2023/06/08 13:07:18;;;;;;;;;;;26.40;80.60;;;;;;5073749;28;20314;-43
2023/06/08 13:09:43;;;;;;;;;;;26.50;80.30;;;;;;5075003;28;19915;-44
2023/06/08 13:12:09;;;;;;;;;;;26.70;79.50;;;;;;5075057;28;20556;-47
2023/06/08 13:14:35;;;;;;;;;;;26.80;76.20;;;;;;5074013;28;19909;-44
2023/06/08 13:17:04;;;;;;;;;;;26.90;76.50;;;;;;5074095;28;19916;-43
2023/06/08 13:19:29;;;;;;;;;;;27.00;75.90;;;;;;5074791;28;19912;-44
2023/06/08 13:21:55;;;;;;;;;;;27.10;73.50;;;;;;5074788;28;19954;-44
2023/06/08 13:24:21;;;;;;;;;;;27.20;74.00;;;;;;5074411;28;19908;-42
2023/06/08 13:26:48;;;;;;;;;;;27.40;74.60;;;;;;5074589;28;19987;-44
2023/06/08 13:29:16;;;;;;;;;;;27.50;74.30;;;;;;5073556;28;19909;-44
2023/06/08 13:31:44;;;;;;;;;;;27.60;72.80;;;;;;5072602;28;20404;-42
2023/06/08 13:34:10;;;;;;;;;;;27.70;72.30;;;;;;5056998;28;19919;-45
2023/06/08 13:36:36;;;;;;;;;;;27.70;72.10;;;;;;5065017;28;19921;-45
2023/06/08 13:39:01;;;;;;;;;;;27.90;72.30;;;;;;5063045;28;19913;-44
2023/06/08 13:41:33;;;;;;;;;;;27.90;70.20;;;;;;5054381;28;19913;-43
2023/06/08 13:43:59;;;;;;;;;;;27.90;69.90;;;;;;5073965;28;20283;-44
2023/06/08 13:46:24;;;;;;;;;;;28.10;71.00;;;;;;5073824;28;19912;-43
2023/06/08 13:48:50;;;;;;;;;;;28.20;70.70;;;;;;5074309;28;19912;-43
2023/06/08 13:51:16;;;;;;;;;;;28.30;70.20;;;;;;5073403;28;20320;-42
2023/06/08 13:53:41;;;;;;;;;;;28.40;68.60;;;;;;5074301;28;20444;-44
2023/06/08 13:56:08;;;;;;;;;;;28.60;69.40;;;;;;5070474;28;19920;-44
2023/06/08 13:58:33;;;;;;;;;;;28.60;67.10;;;;;;5072717;28;19958;-45
2023/06/08 14:00:59;;;;;;;;;;;28.70;67.70;;;;;;5074399;28;19908;-43
2023/06/08 14:03:25;;;;;;;;;;;28.70;66.10;;;;;;5073186;28;20389;-44
2023/06/08 14:05:51;;;;;;;;;;;28.80;65.80;;;;;;5073547;28;20003;-44
2023/06/08 14:08:17;;;;;;;;;;;29.00;66.00;;;;;;5093161;28;19912;-44
2023/06/08 14:10:43;;;;;;;;;;;29.00;64.40;;;;;;5092253;28;20007;-44
2023/06/08 14:13:08;;;;;;;;;;;29.00;65.30;;;;;;5086067;28;20285;-46